sensor_id;sensor_type;location;lat;lon;timestamp;pressure;altitude;pressure_sealevel;temperature;humidity
7760;BME280;3924;48.830;9.262;2023-04-05T00:02:10;99180.66;;;2.51;58.36
7760;BME280;3924;48.830;9.262;2023-04-05T00:04:39;99176.06;;;2.39;58.31
7760;BME280;3924;48.830;9.262;2023-04-05T00:07:15;99180.56;;;2.27;58.68
7760;BME280;3924;48.830;9.262;2023-04-05T00:09:42;99175.63;;;2.24;58.84
7760;BME280;3924;48.830;9.262;2023-04-05T00:12:09;99174.00;;;2.23;58.96
7760;BME280;3924;48.830;9.262;2023-04-05T00:14:35;99166.94;;;2.29;59.01
7760;BME280;3924;48.830;9.262;2023-04-05T00:17:02;99168.72;;;2.35;59.12
7760;BME280;3924;48.830;9.262;2023-04-05T00:19:29;99162.56;;;2.34;59.02
7760;BME280;3924;48.830;9.262;2023-04-05T00:21:59;99165.59;;;2.38;59.00
7760;BME280;3924;48.830;9.262;2023-04-05T00:24:25;99153.19;;;2.43;59.01
7760;BME280;3924;48.830;9.262;2023-04-05T00:26:54;99151.69;;;2.47;59.17
7760;BME280;3924;48.830;9.262;2023-04-05T00:29:22;99143.88;;;2.46;59.06
7760;BME280;3924;48.830;9.262;2023-04-05T00:31:48;99147.38;;;2.46;59.23
7760;BME280;3924;48.830;9.262;2023-04-05T00:34:15;99140.38;;;2.45;59.38
7760;BME280;3924;48.830;9.262;2023-04-05T00:36:41;99148.41;;;2.45;59.49
7760;BME280;3924;48.830;9.262;2023-04-05T00:39:08;99143.69;;;2.47;59.80
7760;BME280;3924;48.830;9.262;2023-04-05T00:41:34;99139.13;;;2.48;59.62
7760;BME280;3924;48.830;9.262;2023-04-05T00:44:01;99131.31;;;2.46;59.84
7760;BME280;3924;48.830;9.262;2023-04-05T00:46:33;99133.16;;;2.46;59.74
7760;BME280;3924;48.830;9.262;2023-04-05T00:48:59;99141.00;;;2.47;59.96
7760;BME280;3924;48.830;9.262;2023-04-05T00:51:26;99130.72;;;2.44;60.15
7760;BME280;3924;48.830;9.262;2023-04-05T00:53:53;99126.66;;;2.42;59.82
7760;BME280;3924;48.830;9.262;2023-04-05T00:56:21;99126.88;;;2.40;60.17
7760;BME280;3924;48.830;9.262;2023-04-05T00:58:48;99125.63;;;2.43;60.26
7760;BME280;3924;48.830;9.262;2023-04-05T01:01:19;99128.06;;;2.44;59.91
7760;BME280;3924;48.830;9.262;2023-04-05T01:03:52;99124.78;;;2.42;60.28
7760;BME280;3924;48.830;9.262;2023-04-05T01:09:07;99119.06;;;2.39;60.53
7760;BME280;3924;48.830;9.262;2023-04-05T01:11:38;99117.66;;;2.36;60.45
7760;BME280;3924;48.830;9.262;2023-04-05T01:14:05;99112.97;;;2.32;60.63
7760;BME280;3924;48.830;9.262;2023-04-05T01:16:32;99111.34;;;2.31;60.73
7760;BME280;3924;48.830;9.262;2023-04-05T01:18:58;99106.25;;;2.29;60.69
7760;BME280;3924;48.830;9.262;2023-04-05T01:24:31;99099.84;;;2.30;60.60
7760;BME280;3924;48.830;9.262;2023-04-05T01:27:13;99092.88;;;2.29;60.50
7760;BME280;3924;48.830;9.262;2023-04-05T01:29:46;99097.41;;;2.29;60.70
7760;BME280;3924;48.830;9.262;2023-04-05T01:37:59;99086.78;;;2.22;61.09
7760;BME280;3924;48.830;9.262;2023-04-05T01:40:29;99088.25;;;2.18;61.49
7760;BME280;3924;48.830;9.262;2023-04-05T01:42:56;99082.78;;;2.13;61.50
7760;BME280;3924;48.830;9.262;2023-04-05T01:45:23;99094.38;;;2.07;61.57
7760;BME280;3924;48.830;9.262;2023-04-05T01:47:49;99086.78;;;2.04;61.45
7760;BME280;3924;48.830;9.262;2023-04-05T01:50:16;99080.41;;;2.05;61.57
7760;BME280;3924;48.830;9.262;2023-04-05T01:52:42;99081.91;;;2.01;61.60
7760;BME280;3924;48.830;9.262;2023-04-05T01:55:09;99082.13;;;1.99;61.72
7760;BME280;3924;48.830;9.262;2023-04-05T01:57:37;99081.28;;;1.99;61.88
7760;BME280;3924;48.830;9.262;2023-04-05T02:00:04;99083.53;;;2.02;61.92
7760;BME280;3924;48.830;9.262;2023-04-05T02:02:34;99084.56;;;2.01;61.83
7760;BME280;3924;48.830;9.262;2023-04-05T02:05:00;99079.47;;;1.99;61.95
7760;BME280;3924;48.830;9.262;2023-04-05T02:07:27;99077.00;;;1.98;61.93
7760;BME280;3924;48.830;9.262;2023-04-05T02:09:53;99070.47;;;1.94;62.03
7760;BME280;3924;48.830;9.262;2023-04-05T02:12:20;99074.38;;;1.91;61.95
7760;BME280;3924;48.830;9.262;2023-04-05T02:14:48;99068.69;;;1.87;62.22
7760;BME280;3924;48.830;9.262;2023-04-05T02:17:14;99066.69;;;1.83;62.42
7760;BME280;3924;48.830;9.262;2023-04-05T02:19:43;99071.94;;;1.89;62.31
7760;BME280;3924;48.830;9.262;2023-04-05T02:22:12;99061.84;;;1.91;62.15
7760;BME280;3924;48.830;9.262;2023-04-05T02:24:38;99064.09;;;1.95;62.32
7760;BME280;3924;48.830;9.262;2023-04-05T02:27:05;99063.84;;;1.96;62.22
7760;BME280;3924;48.830;9.262;2023-04-05T02:29:32;99065.25;;;1.99;62.14
7760;BME280;3924;48.830;9.262;2023-04-05T02:32:00;99067.34;;;1.97;62.07
7760;BME280;3924;48.830;9.262;2023-04-05T02:34:27;99066.16;;;1.92;62.12
7760;BME280;3924;48.830;9.262;2023-04-05T02:36:53;99056.06;;;1.95;62.34
7760;BME280;3924;48.830;9.262;2023-04-05T02:39:20;99058.16;;;1.92;62.31
7760;BME280;3924;48.830;9.262;2023-04-05T02:41:47;99062.44;;;1.94;62.51
7760;BME280;3924;48.830;9.262;2023-04-05T02:44:13;99064.50;;;1.91;62.60
7760;BME280;3924;48.830;9.262;2023-04-05T02:46:39;99061.25;;;1.89;62.63
7760;BME280;3924;48.830;9.262;2023-04-05T02:49:06;99058.44;;;1.84;62.64
7760;BME280;3924;48.830;9.262;2023-04-05T02:51:32;99063.78;;;1.84;62.86
7760;BME280;3924;48.830;9.262;2023-04-05T02:54:01;99064.81;;;1.83;62.82
7760;BME280;3924;48.830;9.262;2023-04-05T02:56:28;99056.44;;;1.80;62.93
7760;BME280;3924;48.830;9.262;2023-04-05T02:58:55;99052.00;;;1.74;62.91
7760;BME280;3924;48.830;9.262;2023-04-05T03:01:21;99048.34;;;1.68;63.17
7760;BME280;3924;48.830;9.262;2023-04-05T03:03:49;99059.03;;;1.68;63.14
7760;BME280;3924;48.830;9.262;2023-04-05T03:06:15;99049.00;;;1.63;63.12
7760;BME280;3924;48.830;9.262;2023-04-05T03:08:42;99044.13;;;1.60;63.30
7760;BME280;3924;48.830;9.262;2023-04-05T03:11:13;99052.94;;;1.61;63.49
7760;BME280;3924;48.830;9.262;2023-04-05T03:13:40;99054.56;;;1.62;63.42
7760;BME280;3924;48.830;9.262;2023-04-05T03:16:06;99049.06;;;1.57;63.41
7760;BME280;3924;48.830;9.262;2023-04-05T03:18:33;99053.00;;;1.54;63.50
7760;BME280;3924;48.830;9.262;2023-04-05T03:20:59;99049.13;;;1.50;63.85
7760;BME280;3924;48.830;9.262;2023-04-05T03:23:28;99049.38;;;1.49;63.65
7760;BME280;3924;48.830;9.262;2023-04-05T03:26:02;99040.78;;;1.47;63.66
7760;BME280;3924;48.830;9.262;2023-04-05T03:28:30;99047.16;;;1.46;63.77
7760;BME280;3924;48.830;9.262;2023-04-05T03:30:59;99041.81;;;1.46;63.86
7760;BME280;3924;48.830;9.262;2023-04-05T03:33:26;99051.06;;;1.43;63.79
7760;BME280;3924;48.830;9.262;2023-04-05T03:35:52;99046.75;;;1.42;63.95
7760;BME280;3924;48.830;9.262;2023-04-05T03:38:19;99043.72;;;1.39;63.98
7760;BME280;3924;48.830;9.262;2023-04-05T03:40:45;99049.50;;;1.35;64.26
7760;BME280;3924;48.830;9.262;2023-04-05T03:43:12;99045.66;;;1.31;64.05
7760;BME280;3924;48.830;9.262;2023-04-05T03:45:39;99054.09;;;1.28;64.29
7760;BME280;3924;48.830;9.262;2023-04-05T03:48:06;99054.53;;;1.25;64.29
7760;BME280;3924;48.830;9.262;2023-04-05T03:50:32;99046.75;;;1.24;64.38
7760;BME280;3924;48.830;9.262;2023-04-05T03:52:58;99043.88;;;1.25;64.56
7760;BME280;3924;48.830;9.262;2023-04-05T03:55:25;99040.16;;;1.26;64.53
7760;BME280;3924;48.830;9.262;2023-04-05T03:57:52;99048.59;;;1.23;64.40
7760;BME280;3924;48.830;9.262;2023-04-05T04:00:19;99038.59;;;1.19;64.68
7760;BME280;3924;48.830;9.262;2023-04-05T04:02:47;99048.06;;;1.15;64.90
7760;BME280;3924;48.830;9.262;2023-04-05T04:05:15;99055.03;;;1.16;64.81
7760;BME280;3924;48.830;9.262;2023-04-05T04:07:43;99049.31;;;1.12;64.88
7760;BME280;3924;48.830;9.262;2023-04-05T04:10:14;99046.06;;;1.10;64.74
7760;BME280;3924;48.830;9.262;2023-04-05T04:12:43;99047.31;;;1.07;64.67
7760;BME280;3924;48.830;9.262;2023-04-05T04:15:11;99046.94;;;1.04;65.16
7760;BME280;3924;48.830;9.262;2023-04-05T04:17:37;99052.28;;;1.04;65.13
7760;BME280;3924;48.830;9.262;2023-04-05T04:20:05;99052.69;;;1.01;64.81
7760;BME280;3924;48.830;9.262;2023-04-05T04:22:34;99049.25;;;0.94;65.01
7760;BME280;3924;48.830;9.262;2023-04-05T04:25:05;99055.63;;;0.93;65.12
7760;BME280;3924;48.830;9.262;2023-04-05T04:27:37;99050.31;;;0.93;65.16
7760;BME280;3924;48.830;9.262;2023-04-05T04:30:09;99055.03;;;0.91;65.38
7760;BME280;3924;48.830;9.262;2023-04-05T04:32:37;99056.09;;;0.90;65.12
7760;BME280;3924;48.830;9.262;2023-04-05T04:35:18;99057.72;;;0.91;65.16
7760;BME280;3924;48.830;9.262;2023-04-05T04:37:46;99057.72;;;0.91;65.44
7760;BME280;3924;48.830;9.262;2023-04-05T04:40:14;99053.19;;;0.91;65.33
7760;BME280;3924;48.830;9.262;2023-04-05T04:42:46;99052.78;;;0.88;65.36
7760;BME280;3924;48.830;9.262;2023-04-05T04:45:13;99055.50;;;0.81;65.30
7760;BME280;3924;48.830;9.262;2023-04-05T04:47:44;99057.00;;;0.77;65.58
7760;BME280;3924;48.830;9.262;2023-04-05T04:50:11;99055.41;;;0.69;65.59
7760;BME280;3924;48.830;9.262;2023-04-05T04:52:38;99055.41;;;0.69;65.67
7760;BME280;3924;48.830;9.262;2023-04-05T04:55:09;99056.22;;;0.70;65.79
7760;BME280;3924;48.830;9.262;2023-04-05T04:57:39;99049.47;;;0.67;65.57
7760;BME280;3924;48.830;9.262;2023-04-05T05:00:08;99050.09;;;0.69;65.60
7760;BME280;3924;48.830;9.262;2023-04-05T05:02:38;99052.94;;;0.68;65.76
7760;BME280;3924;48.830;9.262;2023-04-05T05:05:06;99062.59;;;0.69;65.73
7760;BME280;3924;48.830;9.262;2023-04-05T05:07:35;99060.94;;;0.68;66.05
7760;BME280;3924;48.830;9.262;2023-04-05T05:10:03;99062.38;;;0.70;65.86
7760;BME280;3924;48.830;9.262;2023-04-05T05:12:30;99064.88;;;0.65;65.73
7760;BME280;3924;48.830;9.262;2023-04-05T05:14:56;99070.22;;;0.65;66.23
7760;BME280;3924;48.830;9.262;2023-04-05T05:17:23;99069.94;;;0.73;65.93
7760;BME280;3924;48.830;9.262;2023-04-05T05:19:50;99066.19;;;0.81;65.86
7760;BME280;3924;48.830;9.262;2023-04-05T05:22:17;99068.22;;;0.86;65.74
7760;BME280;3924;48.830;9.262;2023-04-05T05:24:44;99065.09;;;0.89;66.08
7760;BME280;3924;48.830;9.262;2023-04-05T05:27:11;99069.03;;;0.86;65.85
7760;BME280;3924;48.830;9.262;2023-04-05T05:29:38;99062.94;;;0.79;66.01
7760;BME280;3924;48.830;9.262;2023-04-05T05:32:04;99067.69;;;0.77;66.18
7760;BME280;3924;48.830;9.262;2023-04-05T05:34:31;99061.84;;;0.87;66.11
7760;BME280;3924;48.830;9.262;2023-04-05T05:36:58;99073.28;;;0.94;65.77
7760;BME280;3924;48.830;9.262;2023-04-05T05:39:25;99064.22;;;0.95;66.10
7760;BME280;3924;48.830;9.262;2023-04-05T05:41:52;99060.13;;;0.99;65.84
7760;BME280;3924;48.830;9.262;2023-04-05T05:44:18;99059.28;;;0.98;65.84
7760;BME280;3924;48.830;9.262;2023-04-05T05:46:45;99059.66;;;1.02;65.93
7760;BME280;3924;48.830;9.262;2023-04-05T05:49:11;99061.41;;;1.15;65.67
7760;BME280;3924;48.830;9.262;2023-04-05T05:51:38;99063.59;;;1.24;65.29
7760;BME280;3924;48.830;9.262;2023-04-05T05:54:05;99057.38;;;1.30;65.39
7760;BME280;3924;48.830;9.262;2023-04-05T05:56:31;99054.25;;;1.33;65.25
7760;BME280;3924;48.830;9.262;2023-04-05T05:58:57;99064.88;;;1.40;65.37
7760;BME280;3924;48.830;9.262;2023-04-05T06:01:24;99060.81;;;1.56;65.18
7760;BME280;3924;48.830;9.262;2023-04-05T06:03:53;99061.72;;;1.68;65.00
7760;BME280;3924;48.830;9.262;2023-04-05T06:06:21;99064.22;;;1.81;64.59
7760;BME280;3924;48.830;9.262;2023-04-05T06:08:48;99063.63;;;1.98;64.39
7760;BME280;3924;48.830;9.262;2023-04-05T06:11:19;99070.09;;;2.08;64.10
7760;BME280;3924;48.830;9.262;2023-04-05T06:13:50;99068.66;;;2.24;64.20
7760;BME280;3924;48.830;9.262;2023-04-05T06:16:17;99077.97;;;2.33;63.96
7760;BME280;3924;48.830;9.262;2023-04-05T06:18:44;99060.94;;;2.46;63.84
7760;BME280;3924;48.830;9.262;2023-04-05T06:21:11;99075.31;;;2.63;63.36
7760;BME280;3924;48.830;9.262;2023-04-05T06:23:37;99068.47;;;2.79;63.20
7760;BME280;3924;48.830;9.262;2023-04-05T06:26:07;99064.91;;;2.85;63.00
7760;BME280;3924;48.830;9.262;2023-04-05T06:28:33;99071.44;;;3.01;62.97
7760;BME280;3924;48.830;9.262;2023-04-05T06:31:00;99071.34;;;3.19;62.66
7760;BME280;3924;48.830;9.262;2023-04-05T06:33:27;99065.41;;;3.29;62.36
7760;BME280;3924;48.830;9.262;2023-04-05T06:35:53;99072.75;;;3.45;61.86
7760;BME280;3924;48.830;9.262;2023-04-05T06:38:20;99081.00;;;3.55;62.08
7760;BME280;3924;48.830;9.262;2023-04-05T06:40:46;99071.00;;;3.63;61.39
7760;BME280;3924;48.830;9.262;2023-04-05T06:43:12;99067.72;;;3.61;61.65
7760;BME280;3924;48.830;9.262;2023-04-05T06:45:39;99058.28;;;3.70;61.40
7760;BME280;3924;48.830;9.262;2023-04-05T06:48:07;99057.56;;;3.74;61.28
7760;BME280;3924;48.830;9.262;2023-04-05T06:50:33;99065.13;;;3.89;61.03
7760;BME280;3924;48.830;9.262;2023-04-05T06:53:01;99067.47;;;3.86;60.84
7760;BME280;3924;48.830;9.262;2023-04-05T06:55:27;99068.41;;;3.91;60.92
7760;BME280;3924;48.830;9.262;2023-04-05T06:57:55;99064.28;;;4.00;60.75
7760;BME280;3924;48.830;9.262;2023-04-05T07:00:21;99071.72;;;4.10;60.60
7760;BME280;3924;48.830;9.262;2023-04-05T07:02:48;99071.59;;;4.17;60.43
7760;BME280;3924;48.830;9.262;2023-04-05T07:05:14;99070.78;;;4.16;60.16
7760;BME280;3924;48.830;9.262;2023-04-05T07:07:41;99072.53;;;4.10;60.23
7760;BME280;3924;48.830;9.262;2023-04-05T07:10:10;99069.97;;;4.04;60.39
7760;BME280;3924;48.830;9.262;2023-04-05T07:12:38;99075.72;;;4.07;60.21
7760;BME280;3924;48.830;9.262;2023-04-05T07:15:05;99082.03;;;4.30;60.03
7760;BME280;3924;48.830;9.262;2023-04-05T07:17:31;99073.81;;;4.48;59.68
7760;BME280;3924;48.830;9.262;2023-04-05T07:19:58;99081.88;;;4.48;59.47
7760;BME280;3924;48.830;9.262;2023-04-05T07:22:24;99083.34;;;4.56;59.45
7760;BME280;3924;48.830;9.262;2023-04-05T07:24:51;99081.03;;;4.76;59.02
7760;BME280;3924;48.830;9.262;2023-04-05T07:27:18;99074.41;;;4.96;58.76
7760;BME280;3924;48.830;9.262;2023-04-05T07:29:44;99074.16;;;4.97;58.63
7760;BME280;3924;48.830;9.262;2023-04-05T07:32:13;99073.09;;;4.98;58.48
7760;BME280;3924;48.830;9.262;2023-04-05T07:34:40;99068.22;;;4.95;58.44
7760;BME280;3924;48.830;9.262;2023-04-05T07:37:06;99069.44;;;5.04;58.31
7760;BME280;3924;48.830;9.262;2023-04-05T07:39:33;99066.34;;;5.12;57.86
7760;BME280;3924;48.830;9.262;2023-04-05T07:42:01;99078.97;;;5.12;57.85
7760;BME280;3924;48.830;9.262;2023-04-05T07:44:27;99073.34;;;5.13;57.85
7760;BME280;3924;48.830;9.262;2023-04-05T07:46:54;99066.41;;;5.17;57.80
7760;BME280;3924;48.830;9.262;2023-04-05T07:49:26;99073.91;;;5.32;57.48
7760;BME280;3924;48.830;9.262;2023-04-05T07:51:56;99072.19;;;5.43;57.20
7760;BME280;3924;48.830;9.262;2023-04-05T07:54:22;99071.25;;;5.54;57.00
7760;BME280;3924;48.830;9.262;2023-04-05T07:56:50;99069.81;;;5.63;56.81
7760;BME280;3924;48.830;9.262;2023-04-05T07:59:17;99067.50;;;5.72;56.15
7760;BME280;3924;48.830;9.262;2023-04-05T08:01:43;99073.19;;;5.75;56.21
7760;BME280;3924;48.830;9.262;2023-04-05T08:04:10;99066.00;;;5.81;56.24
7760;BME280;3924;48.830;9.262;2023-04-05T08:06:36;99070.75;;;5.91;55.62
7760;BME280;3924;48.830;9.262;2023-04-05T08:09:03;99065.00;;;6.04;55.49
7760;BME280;3924;48.830;9.262;2023-04-05T08:11:31;99069.50;;;6.20;55.10
7760;BME280;3924;48.830;9.262;2023-04-05T08:13:57;99063.91;;;6.27;55.00
7760;BME280;3924;48.830;9.262;2023-04-05T08:16:24;99065.91;;;6.37;54.55
7760;BME280;3924;48.830;9.262;2023-04-05T08:18:50;99058.22;;;6.45;54.46
7760;BME280;3924;48.830;9.262;2023-04-05T08:21:17;99054.94;;;6.43;54.12
7760;BME280;3924;48.830;9.262;2023-04-05T08:23:43;99061.19;;;6.49;53.99
7760;BME280;3924;48.830;9.262;2023-04-05T08:26:10;99059.63;;;6.53;53.85
7760;BME280;3924;48.830;9.262;2023-04-05T08:28:37;99055.81;;;6.49;53.62
7760;BME280;3924;48.830;9.262;2023-04-05T08:31:04;99054.88;;;6.65;53.54
7760;BME280;3924;48.830;9.262;2023-04-05T08:33:31;99059.44;;;6.92;52.84
7760;BME280;3924;48.830;9.262;2023-04-05T08:36:05;99047.75;;;7.08;52.36
7760;BME280;3924;48.830;9.262;2023-04-05T08:38:32;99059.56;;;7.02;52.24
7760;BME280;3924;48.830;9.262;2023-04-05T08:41:20;99060.84;;;6.94;52.31
7760;BME280;3924;48.830;9.262;2023-04-05T08:44:01;99057.63;;;6.97;52.11
7760;BME280;3924;48.830;9.262;2023-04-05T08:46:30;99056.38;;;7.10;51.61
7760;BME280;3924;48.830;9.262;2023-04-05T08:48:57;99059.81;;;7.37;51.34
7760;BME280;3924;48.830;9.262;2023-04-05T08:51:25;99059.41;;;7.56;50.38
7760;BME280;3924;48.830;9.262;2023-04-05T08:53:52;99060.22;;;7.56;50.26
7760;BME280;3924;48.830;9.262;2023-04-05T08:56:21;99054.88;;;7.66;50.40
7760;BME280;3924;48.830;9.262;2023-04-05T08:59:05;99062.78;;;7.78;49.65
7760;BME280;3924;48.830;9.262;2023-04-05T09:01:36;99056.34;;;7.84;49.55
7760;BME280;3924;48.830;9.262;2023-04-05T09:04:28;99057.47;;;7.99;49.22
7760;BME280;3924;48.830;9.262;2023-04-05T09:06:56;99054.78;;;7.99;48.97
7760;BME280;3924;48.830;9.262;2023-04-05T09:09:24;99056.72;;;8.08;48.76
7760;BME280;3924;48.830;9.262;2023-04-05T09:11:51;99048.94;;;8.17;48.24
7760;BME280;3924;48.830;9.262;2023-04-05T09:14:19;99056.50;;;8.25;48.20
7760;BME280;3924;48.830;9.262;2023-04-05T09:16:46;99055.97;;;8.28;47.69
7760;BME280;3924;48.830;9.262;2023-04-05T09:19:12;99057.09;;;8.32;47.57
7760;BME280;3924;48.830;9.262;2023-04-05T09:22:06;99053.88;;;8.40;47.23
7760;BME280;3924;48.830;9.262;2023-04-05T09:24:35;99058.78;;;8.48;46.90
7760;BME280;3924;48.830;9.262;2023-04-05T09:27:07;99057.69;;;8.49;46.71
7760;BME280;3924;48.830;9.262;2023-04-05T09:29:35;99056.34;;;8.47;46.84
7760;BME280;3924;48.830;9.262;2023-04-05T09:32:04;99045.28;;;8.59;46.28
7760;BME280;3924;48.830;9.262;2023-04-05T09:34:33;99048.28;;;8.83;45.93
7760;BME280;3924;48.830;9.262;2023-04-05T09:37:03;99041.53;;;8.80;45.94
7760;BME280;3924;48.830;9.262;2023-04-05T09:39:37;99042.09;;;9.08;45.38
7760;BME280;3924;48.830;9.262;2023-04-05T09:42:09;99046.69;;;9.07;45.31
7760;BME280;3924;48.830;9.262;2023-04-05T09:44:59;99049.38;;;8.97;45.30
7760;BME280;3924;48.830;9.262;2023-04-05T09:47:29;99043.44;;;9.05;45.05
7760;BME280;3924;48.830;9.262;2023-04-05T09:50:01;99044.78;;;9.23;44.78
7760;BME280;3924;48.830;9.262;2023-04-05T09:52:30;99048.59;;;9.22;44.63
7760;BME280;3924;48.830;9.262;2023-04-05T09:54:59;99042.06;;;9.33;44.50
7760;BME280;3924;48.830;9.262;2023-04-05T09:57:27;99040.44;;;9.42;44.08
7760;BME280;3924;48.830;9.262;2023-04-05T09:59:55;99040.44;;;9.37;44.17
7760;BME280;3924;48.830;9.262;2023-04-05T10:02:22;99049.66;;;9.41;43.95
7760;BME280;3924;48.830;9.262;2023-04-05T10:04:49;99037.19;;;9.55;43.90
7760;BME280;3924;48.830;9.262;2023-04-05T10:07:17;99031.22;;;9.64;43.55
7760;BME280;3924;48.830;9.262;2023-04-05T10:09:46;99025.22;;;9.67;43.50
7760;BME280;3924;48.830;9.262;2023-04-05T10:12:26;99019.22;;;9.80;43.25
7760;BME280;3924;48.830;9.262;2023-04-05T10:14:54;99021.47;;;9.63;42.95
7760;BME280;3924;48.830;9.262;2023-04-05T10:17:30;99019.34;;;9.49;43.31
7760;BME280;3924;48.830;9.262;2023-04-05T10:20:19;99017.19;;;9.31;43.27
7760;BME280;3924;48.830;9.262;2023-04-05T10:26:10;99004.75;;;9.30;43.40
7760;BME280;3924;48.830;9.262;2023-04-05T10:28:46;99010.09;;;9.60;42.97
7760;BME280;3924;48.830;9.262;2023-04-05T10:34:19;98997.97;;;10.23;41.87
7760;BME280;3924;48.830;9.262;2023-04-05T10:36:57;98995.59;;;10.01;41.75
7760;BME280;3924;48.830;9.262;2023-04-05T10:39:28;98996.47;;;9.86;42.08
7760;BME280;3924;48.830;9.262;2023-04-05T10:41:59;98998.81;;;10.08;41.75
7760;BME280;3924;48.830;9.262;2023-04-05T10:44:30;99002.28;;;10.19;41.54
7760;BME280;3924;48.830;9.262;2023-04-05T10:46:59;98993.34;;;10.18;41.37
7760;BME280;3924;48.830;9.262;2023-04-05T10:49:38;98991.91;;;10.36;41.19
7760;BME280;3924;48.830;9.262;2023-04-05T10:52:05;98989.63;;;10.58;40.81
7760;BME280;3924;48.830;9.262;2023-04-05T10:54:33;98995.59;;;10.55;40.65
7760;BME280;3924;48.830;9.262;2023-04-05T10:57:07;99002.41;;;10.53;40.14
7760;BME280;3924;48.830;9.262;2023-04-05T10:59:40;98990.09;;;10.71;40.16
7760;BME280;3924;48.830;9.262;2023-04-05T11:02:08;98991.09;;;10.80;39.86
7760;BME280;3924;48.830;9.262;2023-04-05T11:04:35;98993.44;;;10.91;39.75
7760;BME280;3924;48.830;9.262;2023-04-05T11:07:10;98984.13;;;11.03;39.46
7760;BME280;3924;48.830;9.262;2023-04-05T11:09:59;98981.50;;;11.21;39.14
7760;BME280;3924;48.830;9.262;2023-04-05T11:15:28;98971.13;;;11.29;38.99
7760;BME280;3924;48.830;9.262;2023-04-05T11:18:09;98967.75;;;11.13;38.92
7760;BME280;3924;48.830;9.262;2023-04-05T11:21:06;98976.72;;;11.13;38.88
7760;BME280;3924;48.830;9.262;2023-04-05T11:24:02;98968.41;;;11.29;38.77
7760;BME280;3924;48.830;9.262;2023-04-05T11:26:51;98965.81;;;11.42;38.42
7760;BME280;3924;48.830;9.262;2023-04-05T11:29:19;98967.72;;;11.42;38.29
7760;BME280;3924;48.830;9.262;2023-04-05T11:32:10;98952.81;;;11.15;38.32
7760;BME280;3924;48.830;9.262;2023-04-05T11:34:40;98962.09;;;11.09;38.54
7760;BME280;3924;48.830;9.262;2023-04-05T11:37:07;98947.88;;;11.17;38.26
7760;BME280;3924;48.830;9.262;2023-04-05T11:39:33;98946.44;;;11.54;37.81
7760;BME280;3924;48.830;9.262;2023-04-05T11:42:03;98937.44;;;11.83;37.42
7760;BME280;3924;48.830;9.262;2023-04-05T11:44:43;98944.47;;;11.84;37.28
7760;BME280;3924;48.830;9.262;2023-04-05T11:47:11;98939.41;;;11.72;37.42
7760;BME280;3924;48.830;9.262;2023-04-05T11:49:38;98941.31;;;11.71;37.24
7760;BME280;3924;48.830;9.262;2023-04-05T11:52:10;98942.38;;;11.75;37.10
7760;BME280;3924;48.830;9.262;2023-04-05T11:54:37;98948.50;;;11.86;36.87
7760;BME280;3924;48.830;9.262;2023-04-05T11:57:05;98941.09;;;11.20;37.51
7760;BME280;3924;48.830;9.262;2023-04-05T11:59:35;98936.50;;;10.91;37.98
7760;BME280;3924;48.830;9.262;2023-04-05T12:02:03;98935.22;;;11.37;37.66
7760;BME280;3924;48.830;9.262;2023-04-05T12:04:37;98936.94;;;11.75;37.09
7760;BME280;3924;48.830;9.262;2023-04-05T12:07:15;98932.88;;;11.97;36.59
7760;BME280;3924;48.830;9.262;2023-04-05T12:10:04;98932.38;;;11.95;36.55
7760;BME280;3924;48.830;9.262;2023-04-05T12:12:38;98927.38;;;12.21;36.44
7760;BME280;3924;48.830;9.262;2023-04-05T12:15:07;98930.69;;;12.37;35.97
7760;BME280;3924;48.830;9.262;2023-04-05T12:17:44;98921.81;;;12.31;36.04
7760;BME280;3924;48.830;9.262;2023-04-05T12:20:13;98919.81;;;12.37;35.99
7760;BME280;3924;48.830;9.262;2023-04-05T12:22:41;98917.00;;;12.42;35.68
7760;BME280;3924;48.830;9.262;2023-04-05T12:25:08;98913.78;;;12.40;35.69
7760;BME280;3924;48.830;9.262;2023-04-05T12:27:35;98914.94;;;12.52;35.70
7760;BME280;3924;48.830;9.262;2023-04-05T12:30:15;98909.28;;;12.49;35.62
7760;BME280;3924;48.830;9.262;2023-04-05T12:32:53;98903.75;;;12.73;35.17
7760;BME280;3924;48.830;9.262;2023-04-05T12:35:22;98914.81;;;12.76;35.21
7760;BME280;3924;48.830;9.262;2023-04-05T12:37:58;98895.63;;;12.86;35.24
7760;BME280;3924;48.830;9.262;2023-04-05T12:40:26;98907.09;;;12.83;35.09
7760;BME280;3924;48.830;9.262;2023-04-05T12:45:29;98900.84;;;12.97;34.88
7760;BME280;3924;48.830;9.262;2023-04-05T12:48:20;98889.97;;;12.97;34.97
7760;BME280;3924;48.830;9.262;2023-04-05T12:50:51;98889.59;;;13.17;34.71
7760;BME280;3924;48.830;9.262;2023-04-05T12:53:23;98869.69;;;13.35;34.57
7760;BME280;3924;48.830;9.262;2023-04-05T12:55:52;98880.97;;;13.29;34.46
7760;BME280;3924;48.830;9.262;2023-04-05T12:58:21;98883.34;;;13.17;34.69
7760;BME280;3924;48.830;9.262;2023-04-05T13:00:48;98877.94;;;13.30;34.37
7760;BME280;3924;48.830;9.262;2023-04-05T13:03:19;98873.22;;;13.36;34.28
7760;BME280;3924;48.830;9.262;2023-04-05T13:05:47;98874.31;;;13.21;34.31
7760;BME280;3924;48.830;9.262;2023-04-05T13:08:15;98875.34;;;13.25;34.31
7760;BME280;3924;48.830;9.262;2023-04-05T13:10:44;98862.63;;;13.48;34.10
7760;BME280;3924;48.830;9.262;2023-04-05T13:13:16;98861.09;;;13.56;33.99
7760;BME280;3924;48.830;9.262;2023-04-05T13:15:43;98865.44;;;13.43;34.11
7760;BME280;3924;48.830;9.262;2023-04-05T13:18:11;98864.84;;;13.32;34.19
7760;BME280;3924;48.830;9.262;2023-04-05T13:20:44;98863.22;;;13.18;34.32
7760;BME280;3924;48.830;9.262;2023-04-05T13:23:11;98853.81;;;13.10;34.19
7760;BME280;3924;48.830;9.262;2023-04-05T13:25:39;98843.63;;;13.15;34.13
7760;BME280;3924;48.830;9.262;2023-04-05T13:28:07;98852.31;;;13.18;34.22
7760;BME280;3924;48.830;9.262;2023-04-05T13:30:34;98844.88;;;13.37;33.95
7760;BME280;3924;48.830;9.262;2023-04-05T13:33:00;98837.97;;;13.67;33.67
7760;BME280;3924;48.830;9.262;2023-04-05T13:35:29;98841.66;;;13.85;33.41
7760;BME280;3924;48.830;9.262;2023-04-05T13:37:56;98842.06;;;13.78;33.52
7760;BME280;3924;48.830;9.262;2023-04-05T13:40:23;98850.13;;;13.47;33.58
7760;BME280;3924;48.830;9.262;2023-04-05T13:42:49;98849.28;;;13.19;34.22
7760;BME280;3924;48.830;9.262;2023-04-05T13:45:16;98834.28;;;13.35;33.96
7760;BME280;3924;48.830;9.262;2023-04-05T13:47:42;98836.19;;;13.49;33.86
7760;BME280;3924;48.830;9.262;2023-04-05T13:50:09;98827.53;;;13.33;33.87
7760;BME280;3924;48.830;9.262;2023-04-05T13:52:36;98830.63;;;12.99;34.19
7760;BME280;3924;48.830;9.262;2023-04-05T13:55:04;98841.38;;;12.76;34.29
7760;BME280;3924;48.830;9.262;2023-04-05T13:57:31;98834.50;;;12.65;34.52
7760;BME280;3924;48.830;9.262;2023-04-05T13:59:58;98831.53;;;12.94;34.05
7760;BME280;3924;48.830;9.262;2023-04-05T14:02:24;98828.81;;;13.08;33.94
7760;BME280;3924;48.830;9.262;2023-04-05T14:04:52;98833.72;;;12.78;34.20